createdAt,value
2022-11-10T00:00:50.218Z,12.98
2022-11-10T00:03:35.543Z,12.98
2022-11-10T00:06:20.400Z,12.82
2022-11-10T00:09:06.547Z,12.82
2022-11-10T00:11:51.873Z,12.70
2022-11-10T00:14:55.743Z,12.84
2022-11-10T00:17:41.045Z,12.87
2022-11-10T00:20:25.816Z,12.76
2022-11-10T00:23:10.824Z,12.78
2022-11-10T00:25:55.883Z,12.80
2022-11-10T00:28:40.998Z,12.83
2022-11-10T00:31:28.629Z,12.79
2022-11-10T00:34:15.056Z,12.77
2022-11-10T00:37:00.134Z,12.76
2022-11-10T00:39:44.992Z,12.64
2022-11-10T00:42:30.017Z,12.60
2022-11-10T00:45:14.958Z,12.70
2022-11-10T00:47:59.900Z,12.58
2022-11-10T00:50:45.030Z,12.76
2022-11-10T00:53:29.859Z,12.69
2022-11-10T00:56:14.847Z,12.68
2022-11-10T00:59:00.062Z,12.56
2022-11-10T01:01:45.362Z,12.60
2022-11-10T01:04:30.332Z,12.63
2022-11-10T01:07:15.373Z,12.45
2022-11-10T01:10:00.346Z,12.55
2022-11-10T01:12:45.276Z,12.39
2022-11-10T01:15:30.111Z,12.39
2022-11-10T01:18:15.920Z,12.32
2022-11-10T01:21:00.840Z,12.48
2022-11-10T01:23:46.174Z,12.61
2022-11-10T01:26:31.256Z,12.54
2022-11-10T01:29:16.261Z,12.54
2022-11-10T01:32:01.128Z,12.47
2022-11-10T01:34:46.166Z,12.53
2022-11-10T01:37:31.016Z,12.45
2022-11-10T01:40:16.135Z,12.34
2022-11-10T01:43:01.580Z,12.30
2022-11-10T01:45:53.449Z,12.18
2022-11-10T01:48:44.763Z,12.02
2022-11-10T01:51:30.534Z,12.02
2022-11-10T01:54:18.319Z,12.18
2022-11-10T01:57:05.267Z,12.24
2022-11-10T01:59:51.280Z,12.22
2022-11-10T02:02:56.797Z,12.19
2022-11-10T02:05:42.385Z,12.10
2022-11-10T02:08:27.330Z,12.15
2022-11-10T02:11:12.584Z,12.04
2022-11-10T02:13:57.623Z,11.95
2022-11-10T02:16:42.659Z,11.88
2022-11-10T02:19:28.249Z,11.83
2022-11-10T02:22:13.376Z,12.01
2022-11-10T02:24:58.805Z,11.98
2022-11-10T02:27:43.703Z,11.91
2022-11-10T02:30:28.820Z,11.73
2022-11-10T02:33:13.818Z,11.96
2022-11-10T02:35:58.883Z,12.03
2022-11-10T02:38:43.669Z,12.10
2022-11-10T02:41:28.640Z,12.20
2022-11-10T02:44:13.575Z,12.14
2022-11-10T02:46:58.474Z,12.15
2022-11-10T02:49:45.086Z,12.22
2022-11-10T02:52:30.217Z,12.19
2022-11-10T02:55:15.777Z,12.23
2022-11-10T02:58:00.698Z,12.18
2022-11-10T03:00:45.786Z,12.13
2022-11-10T03:03:30.704Z,12.15
2022-11-10T03:06:15.571Z,12.07
2022-11-10T03:09:00.687Z,11.96
2022-11-10T03:11:45.485Z,11.94
2022-11-10T03:14:30.457Z,11.91
2022-11-10T03:17:15.367Z,11.92
2022-11-10T03:20:00.351Z,11.89
2022-11-10T03:22:45.414Z,11.73
2022-11-10T03:25:30.605Z,11.81
2022-11-10T03:28:15.566Z,11.57
2022-11-10T03:31:00.810Z,11.60
2022-11-10T03:33:46.071Z,11.62
2022-11-10T03:36:31.064Z,11.71
2022-11-10T03:39:16.041Z,11.81
2022-11-10T03:42:01.127Z,11.74
2022-11-10T03:44:46.104Z,11.74
2022-11-10T03:47:31.038Z,11.76
2022-11-10T03:50:16.179Z,11.70
2022-11-10T03:53:01.361Z,11.70
2022-11-10T03:55:46.304Z,11.76
2022-11-10T03:58:31.306Z,11.83
2022-11-10T04:01:16.236Z,11.77
2022-11-10T04:04:01.653Z,11.65
2022-11-10T04:07:05.500Z,11.71
2022-11-10T04:09:50.554Z,11.78
2022-11-10T04:12:54.321Z,11.74
2022-11-10T04:15:42.198Z,11.63
2022-11-10T04:18:27.167Z,11.52
2022-11-10T04:21:12.329Z,11.50
2022-11-10T04:23:57.179Z,11.54
2022-11-10T04:26:42.958Z,11.52
2022-11-10T04:29:28.054Z,11.52
2022-11-10T04:32:13.466Z,11.56
2022-11-10T04:34:59.036Z,11.49
2022-11-10T04:37:43.918Z,11.45
2022-11-10T04:40:29.269Z,11.21
2022-11-10T04:43:14.096Z,11.30
2022-11-10T04:45:59.243Z,11.30
2022-11-10T04:48:44.409Z,11.09
2022-11-10T04:51:30.531Z,11.05
2022-11-10T04:54:15.864Z,10.96
2022-11-10T04:57:00.621Z,10.81
2022-11-10T04:59:45.537Z,10.73
2022-11-10T05:02:34.384Z,10.83
2022-11-10T05:05:21.849Z,10.74
2022-11-10T05:08:07.189Z,10.66
2022-11-10T05:10:52.148Z,10.73
2022-11-10T05:13:37.086Z,10.68
2022-11-10T05:16:22.417Z,10.62
2022-11-10T05:19:08.261Z,10.62
2022-11-10T05:21:53.271Z,10.60
2022-11-10T05:24:38.997Z,10.69
2022-11-10T05:27:23.957Z,10.55
2022-11-10T05:30:09.204Z,10.57
2022-11-10T05:32:54.241Z,10.62
2022-11-10T05:35:39.524Z,10.48
2022-11-10T05:38:24.466Z,10.47
2022-11-10T05:41:09.555Z,10.58
2022-11-10T05:43:54.958Z,10.59
2022-11-10T05:46:39.883Z,10.64
2022-11-10T05:49:24.839Z,10.71
2022-11-10T05:52:09.740Z,10.74
2022-11-10T05:54:55.552Z,10.75
2022-11-10T05:57:46.890Z,10.73
2022-11-10T06:00:32.275Z,10.69
2022-11-10T06:03:18.052Z,10.47
2022-11-10T06:06:03.470Z,10.23
2022-11-10T06:08:48.943Z,10.38
2022-11-10T06:11:34.988Z,10.29
2022-11-10T06:14:19.885Z,10.42
2022-11-10T06:17:04.834Z,10.31
2022-11-10T06:19:50.194Z,10.19
2022-11-10T06:22:35.075Z,10.13
2022-11-10T06:25:19.898Z,10.00
2022-11-10T06:28:05.162Z,10.01
2022-11-10T06:30:50.667Z,9.89
2022-11-10T06:33:36.153Z,9.89
2022-11-10T06:36:21.547Z,9.87
2022-11-10T06:39:06.841Z,9.90
2022-11-10T06:41:53.084Z,9.88
2022-11-10T06:44:37.983Z,9.99
2022-11-10T06:47:22.819Z,10.01
2022-11-10T06:50:07.881Z,10.25
2022-11-10T06:52:59.321Z,10.29
2022-11-10T06:55:44.427Z,10.46
2022-11-10T06:58:29.377Z,10.59
2022-11-10T07:01:17.663Z,10.87
2022-11-10T07:04:19.353Z,10.92
2022-11-10T07:07:05.409Z,11.01
2022-11-10T07:09:50.328Z,11.13
2022-11-10T07:12:35.251Z,11.14
2022-11-10T07:15:20.261Z,11.21
2022-11-10T07:18:05.236Z,11.15
2022-11-10T07:20:50.220Z,11.33
2022-11-10T07:23:35.167Z,11.32
2022-11-10T07:26:20.258Z,11.47
2022-11-10T07:29:05.584Z,11.58
2022-11-10T07:31:50.658Z,11.58
2022-11-10T07:34:35.699Z,11.64
2022-11-10T07:37:20.651Z,11.53
2022-11-10T07:40:06.092Z,11.64
2022-11-10T07:42:51.242Z,11.68
2022-11-10T07:45:36.465Z,11.58
2022-11-10T07:48:21.594Z,11.60
2022-11-10T07:51:07.072Z,11.59
2022-11-10T07:53:52.357Z,11.70
2022-11-10T07:56:37.497Z,11.66
2022-11-10T07:59:22.542Z,11.60
2022-11-10T08:02:09.291Z,11.52
2022-11-10T08:04:54.955Z,11.48
2022-11-10T08:07:41.308Z,11.52
2022-11-10T08:10:27.430Z,11.52
2022-11-10T08:13:12.972Z,11.59
2022-11-10T08:15:59.577Z,11.66
2022-11-10T08:18:44.933Z,11.79
2022-11-10T08:21:30.042Z,11.93
2022-11-10T08:24:14.872Z,12.01
2022-11-10T08:26:59.696Z,12.04
2022-11-10T08:29:44.475Z,12.09
2022-11-10T08:32:29.535Z,12.12
2022-11-10T08:35:14.384Z,12.16
2022-11-10T08:37:59.244Z,12.25
2022-11-10T08:40:44.447Z,12.22
2022-11-10T08:43:30.050Z,12.30
2022-11-10T08:46:15.396Z,12.32
2022-11-10T08:49:00.431Z,12.44
2022-11-10T08:51:45.516Z,12.44
2022-11-10T08:54:30.340Z,12.57
2022-11-10T08:57:15.518Z,12.63
2022-11-10T09:00:00.827Z,12.79
2022-11-10T09:02:45.991Z,12.69
2022-11-10T09:05:31.044Z,12.98
2022-11-10T09:08:16.060Z,13.06
2022-11-10T09:11:04.359Z,13.12
2022-11-10T09:13:49.514Z,13.09
2022-11-10T09:16:34.426Z,13.22
2022-11-10T09:19:20.147Z,13.23
2022-11-10T09:22:05.518Z,13.21
2022-11-10T09:24:50.534Z,13.23
2022-11-10T09:27:36.291Z,13.33
2022-11-10T09:30:21.351Z,13.30
2022-11-10T09:33:06.984Z,13.28
2022-11-10T09:35:56.519Z,13.36
2022-11-10T09:38:42.116Z,13.35
2022-11-10T09:41:29.971Z,13.44
2022-11-10T09:44:16.627Z,13.51
2022-11-10T09:47:50.481Z,13.53
2022-11-10T09:50:37.820Z,13.61
2022-11-10T09:53:23.788Z,13.51
2022-11-10T09:56:09.136Z,13.60
2022-11-10T09:58:54.386Z,13.66
2022-11-10T10:01:47.650Z,13.61
2022-11-10T10:04:33.001Z,13.75
2022-11-10T10:07:18.574Z,13.72
2022-11-10T10:10:24.266Z,13.84
2022-11-10T10:13:12.059Z,13.75
2022-11-10T10:16:10.669Z,13.85
2022-11-10T10:19:05.315Z,14.04
2022-11-10T10:21:50.406Z,14.02
2022-11-10T10:24:35.343Z,14.01
2022-11-10T10:27:21.663Z,14.12
2022-11-10T10:30:14.840Z,14.09
2022-11-10T10:33:19.521Z,14.07
2022-11-10T10:36:06.623Z,14.03
2022-11-10T10:38:56.044Z,14.15
2022-11-10T10:41:41.304Z,14.25
2022-11-10T10:44:26.319Z,14.17
2022-11-10T10:47:11.202Z,14.16
2022-11-10T10:50:05.864Z,14.03
2022-11-10T10:53:07.362Z,14.00
2022-11-10T10:56:05.576Z,14.04
2022-11-10T10:58:57.429Z,13.97
2022-11-10T11:01:46.768Z,14.16
2022-11-10T11:04:32.245Z,14.30
2022-11-10T11:07:22.779Z,14.34
2022-11-10T11:10:22.135Z,14.41
2022-11-10T11:13:16.433Z,14.32
2022-11-10T11:16:02.300Z,14.09
2022-11-10T11:18:47.186Z,13.87
2022-11-10T11:21:34.807Z,13.59
2022-11-10T11:24:40.329Z,13.54
2022-11-10T11:27:44.392Z,13.55
2022-11-10T11:30:48.352Z,13.66
2022-11-10T11:33:36.079Z,13.67
2022-11-10T11:36:24.867Z,13.81
2022-11-10T11:39:48.659Z,13.78
2022-11-10T11:42:45.807Z,13.54
2022-11-10T11:45:33.734Z,13.37
2022-11-10T11:48:21.737Z,13.27
2022-11-10T11:51:10.218Z,13.24
2022-11-10T11:54:16.218Z,13.25
2022-11-10T11:57:07.155Z,13.28
2022-11-10T11:59:59.262Z,13.23
2022-11-10T12:02:52.473Z,13.19
2022-11-10T12:05:44.012Z,13.07
2022-11-10T12:08:31.890Z,13.05
2022-11-10T12:11:20.473Z,13.02
2022-11-10T12:14:05.453Z,12.99
2022-11-10T12:16:58.432Z,13.03
2022-11-10T12:20:03.750Z,13.16
2022-11-10T12:22:57.754Z,13.37
2022-11-10T12:26:01.746Z,13.50
2022-11-10T12:28:50.378Z,13.68
2022-11-10T12:31:36.067Z,13.60
2022-11-10T12:34:28.637Z,13.40
2022-11-10T12:37:27.522Z,13.37
2022-11-10T12:40:13.144Z,13.59
2022-11-10T12:43:02.284Z,13.76
2022-11-10T12:45:49.220Z,14.00
2022-11-10T12:48:36.343Z,14.01
2022-11-10T12:51:32.367Z,14.10
2022-11-10T12:54:17.624Z,14.15
2022-11-10T12:57:04.715Z,14.19
2022-11-10T12:59:56.728Z,14.22
2022-11-10T13:02:42.669Z,14.28
2022-11-10T13:05:27.669Z,14.50
2022-11-10T13:08:12.665Z,14.54
2022-11-10T13:10:58.080Z,14.66
2022-11-10T13:13:46.493Z,14.83
2022-11-10T13:16:40.626Z,14.82
2022-11-10T13:19:29.091Z,14.84
2022-11-10T13:22:43.571Z,15.10
2022-11-10T13:25:37.761Z,14.99
2022-11-10T13:28:41.512Z,15.05
2022-11-10T13:31:31.057Z,15.12
2022-11-10T13:34:19.119Z,15.00
2022-11-10T13:37:22.888Z,14.91
2022-11-10T13:40:16.971Z,14.98
2022-11-10T13:43:01.973Z,14.95
2022-11-10T13:45:47.064Z,14.77
2022-11-10T13:49:04.566Z,14.44
2022-11-10T13:52:12.720Z,14.66
2022-11-10T13:55:16.796Z,14.51
2022-11-10T13:58:02.474Z,14.49
2022-11-10T14:00:51.144Z,14.38
2022-11-10T14:03:45.670Z,14.26
2022-11-10T14:06:40.696Z,14.15
2022-11-10T14:09:27.731Z,14.06
2022-11-10T14:12:30.537Z,13.88
2022-11-10T14:15:20.185Z,13.84
2022-11-10T14:18:11.644Z,13.74
2022-11-10T14:20:57.644Z,13.64
2022-11-10T14:23:42.888Z,13.74
2022-11-10T14:26:44.544Z,13.71
2022-11-10T14:29:29.562Z,13.65
2022-11-10T14:32:21.581Z,13.69
2022-11-10T14:35:06.596Z,13.58
2022-11-10T14:37:57.612Z,13.60
2022-11-10T14:40:43.329Z,13.50
2022-11-10T14:43:29.946Z,13.44
2022-11-10T14:46:15.706Z,13.45
2022-11-10T14:49:01.999Z,13.34
2022-11-10T14:51:47.281Z,13.23
2022-11-10T14:54:32.492Z,13.23
2022-11-10T14:57:18.814Z,13.23
2022-11-10T15:00:08.479Z,13.07
2022-11-10T15:02:54.564Z,12.97
2022-11-10T15:05:39.429Z,12.88
2022-11-10T15:08:24.701Z,12.83
2022-11-10T15:11:29.092Z,12.76
2022-11-10T15:14:35.435Z,12.65
2022-11-10T15:17:20.941Z,12.61
2022-11-10T15:20:07.712Z,12.49
2022-11-10T15:22:53.004Z,12.40
2022-11-10T15:25:39.617Z,12.32
2022-11-10T15:28:29.582Z,12.26
2022-11-10T15:31:27.735Z,12.19
2022-11-10T15:34:28.073Z,12.09
2022-11-10T15:37:20.635Z,12.07
2022-11-10T15:40:25.977Z,11.97
2022-11-10T15:43:15.413Z,11.93
2022-11-10T15:46:01.644Z,11.88
2022-11-10T15:48:47.828Z,11.79
2022-11-10T15:51:32.810Z,11.72
2022-11-10T15:54:19.111Z,11.67
2022-11-10T15:57:04.302Z,11.62
2022-11-10T15:59:49.902Z,11.55
2022-11-10T16:02:34.787Z,11.51
2022-11-10T16:05:19.837Z,11.46
2022-11-10T16:08:05.764Z,11.42
2022-11-10T16:10:51.917Z,11.38
2022-11-10T16:13:37.088Z,11.35
2022-11-10T16:16:24.095Z,11.30
2022-11-10T16:19:09.780Z,11.25
2022-11-10T16:21:54.703Z,11.27
2022-11-10T16:24:40.239Z,11.28
2022-11-10T16:27:25.272Z,11.30
2022-11-10T16:30:13.914Z,11.26
2022-11-10T16:32:59.653Z,11.24
2022-11-10T16:35:44.592Z,11.14
2022-11-10T16:38:29.938Z,11.08
2022-11-10T16:41:15.295Z,11.05
2022-11-10T16:44:00.134Z,11.04
2022-11-10T16:46:45.778Z,10.96
2022-11-10T16:49:44.002Z,10.90
2022-11-10T16:52:29.267Z,10.84
2022-11-10T16:55:14.227Z,10.83
2022-11-10T16:58:01.701Z,10.79
2022-11-10T17:00:47.526Z,10.73
2022-11-10T17:03:36.643Z,10.68
2022-11-10T17:06:21.773Z,10.64
2022-11-10T17:09:13.369Z,10.67
2022-11-10T17:11:58.522Z,10.61
2022-11-10T17:14:43.635Z,10.60
2022-11-10T17:17:28.552Z,10.58
2022-11-10T17:20:23.970Z,10.55
2022-11-10T17:23:10.658Z,10.56
2022-11-10T17:25:55.787Z,10.50
2022-11-10T17:28:46.145Z,10.44
2022-11-10T17:31:31.135Z,10.43
2022-11-10T17:34:16.398Z,10.40
2022-11-10T17:37:01.123Z,10.37
2022-11-10T17:39:46.106Z,10.33
2022-11-10T17:42:30.975Z,10.33
2022-11-10T17:45:19.941Z,10.36
2022-11-10T17:48:05.157Z,10.38
2022-11-10T17:50:50.319Z,10.42
2022-11-10T17:53:35.263Z,10.30
2022-11-10T17:56:20.683Z,10.20
2022-11-10T17:59:05.601Z,10.22
2022-11-10T18:01:50.390Z,10.26
2022-11-10T18:04:35.760Z,10.28
2022-11-10T18:07:20.643Z,10.28
2022-11-10T18:10:06.085Z,10.26
2022-11-10T18:12:51.303Z,10.19
2022-11-10T18:15:36.855Z,10.13
2022-11-10T18:18:21.836Z,10.13
2022-11-10T18:21:06.846Z,10.17
2022-11-10T18:23:52.088Z,10.17
2022-11-10T18:26:37.187Z,10.16
2022-11-10T18:29:22.709Z,10.04
2022-11-10T18:32:07.646Z,10.04
2022-11-10T18:34:52.497Z,9.99
2022-11-10T18:37:39.252Z,9.99
2022-11-10T18:40:24.870Z,10.05
2022-11-10T18:43:09.920Z,9.99
2022-11-10T18:45:54.820Z,10.01
2022-11-10T18:48:40.748Z,9.95
2022-11-10T18:51:26.154Z,9.89
2022-11-10T18:54:10.930Z,10.01
2022-11-10T18:56:56.032Z,10.06
2022-11-10T18:59:41.057Z,10.07
2022-11-10T19:02:26.105Z,9.97
2022-11-10T19:05:11.100Z,9.91
2022-11-10T19:07:56.016Z,9.76
2022-11-10T19:10:44.020Z,9.71
2022-11-10T19:13:28.848Z,9.64
2022-11-10T19:16:15.665Z,9.67
2022-11-10T19:19:01.849Z,9.63
2022-11-10T19:21:46.679Z,9.60
2022-11-10T19:24:42.361Z,9.61
2022-11-10T19:27:36.827Z,9.61
2022-11-10T19:30:21.727Z,9.68
2022-11-10T19:33:06.826Z,9.54
2022-11-10T19:35:51.854Z,9.60
2022-11-10T19:38:36.934Z,9.72
2022-11-10T19:41:26.409Z,9.68
2022-11-10T19:44:11.368Z,9.64
2022-11-10T19:46:56.485Z,9.59
2022-11-10T19:49:41.443Z,9.73
2022-11-10T19:52:26.896Z,9.55
2022-11-10T19:55:11.831Z,9.41
2022-11-10T19:57:57.174Z,9.48
2022-11-10T20:00:46.719Z,9.44
2022-11-10T20:03:32.289Z,9.48
2022-11-10T20:06:19.329Z,9.59
2022-11-10T20:09:05.033Z,9.54
2022-11-10T20:11:50.424Z,9.55
2022-11-10T20:14:35.715Z,9.58
2022-11-10T20:17:20.674Z,9.53
2022-11-10T20:20:06.015Z,9.60
2022-11-10T20:22:51.010Z,9.59
2022-11-10T20:25:35.975Z,9.55
2022-11-10T20:28:21.087Z,9.38
2022-11-10T20:31:07.850Z,9.34
2022-11-10T20:33:53.513Z,9.23
2022-11-10T20:36:38.969Z,9.17
2022-11-10T20:39:23.875Z,9.11
2022-11-10T20:42:10.449Z,9.15
2022-11-10T20:44:55.831Z,9.11
2022-11-10T20:47:40.732Z,9.08
2022-11-10T20:50:26.134Z,9.03
2022-11-10T20:53:10.996Z,8.99
2022-11-10T20:55:57.943Z,8.90
2022-11-10T20:58:43.202Z,8.87
2022-11-10T21:01:28.013Z,8.86
2022-11-10T21:04:13.597Z,8.87
2022-11-10T21:06:59.129Z,8.70
2022-11-10T21:09:44.062Z,8.70
2022-11-10T21:12:47.735Z,8.94
2022-11-10T21:15:33.114Z,9.04
2022-11-10T21:18:18.642Z,9.01
2022-11-10T21:21:04.740Z,8.90
2022-11-10T21:23:57.079Z,8.69
2022-11-10T21:26:42.507Z,8.66
2022-11-10T21:29:27.641Z,8.89
2022-11-10T21:32:12.657Z,8.78
2022-11-10T21:34:57.605Z,8.65
2022-11-10T21:37:42.553Z,8.68
2022-11-10T21:40:27.616Z,8.72
2022-11-10T21:43:13.311Z,8.76
2022-11-10T21:45:59.352Z,8.69
2022-11-10T21:48:45.132Z,8.75
2022-11-10T21:51:30.373Z,8.71
2022-11-10T21:54:15.533Z,8.67
2022-11-10T21:57:01.015Z,8.73
2022-11-10T21:59:45.984Z,8.70
2022-11-10T22:02:30.950Z,8.68
2022-11-10T22:05:16.323Z,8.64
2022-11-10T22:08:01.325Z,8.68
2022-11-10T22:11:05.103Z,8.76
2022-11-10T22:14:08.988Z,8.78
2022-11-10T22:17:12.857Z,8.76
2022-11-10T22:19:58.134Z,8.76
2022-11-10T22:22:44.314Z,8.70
2022-11-10T22:25:29.445Z,8.77
2022-11-10T22:28:14.503Z,8.71
2022-11-10T22:31:01.852Z,8.65
2022-11-10T22:33:47.142Z,8.51
2022-11-10T22:36:32.434Z,8.48
2022-11-10T22:39:17.912Z,8.38
2022-11-10T22:42:21.463Z,8.26
2022-11-10T22:45:06.919Z,8.22
2022-11-10T22:48:12.207Z,8.11
2022-11-10T22:50:57.765Z,7.98
2022-11-10T22:53:42.838Z,8.00
2022-11-10T22:56:27.758Z,8.12
2022-11-10T22:59:13.055Z,8.27
2022-11-10T23:01:58.292Z,7.95
2022-11-10T23:04:43.588Z,8.06
2022-11-10T23:07:28.606Z,8.14
2022-11-10T23:10:13.659Z,8.17
2022-11-10T23:12:58.539Z,8.09
2022-11-10T23:15:45.227Z,8.08
2022-11-10T23:18:30.523Z,8.06
2022-11-10T23:21:16.877Z,7.94
2022-11-10T23:24:02.068Z,7.88
2022-11-10T23:26:46.964Z,7.83
2022-11-10T23:29:31.947Z,7.76
2022-11-10T23:32:16.805Z,7.84
2022-11-10T23:35:01.765Z,7.86
2022-11-10T23:37:46.709Z,7.79
2022-11-10T23:40:31.603Z,7.77
2022-11-10T23:43:16.540Z,7.81
2022-11-10T23:46:08.788Z,7.84
2022-11-10T23:48:54.104Z,7.85
2022-11-10T23:51:39.345Z,7.92
2022-11-10T23:54:24.237Z,7.98
2022-11-10T23:57:09.255Z,8.11
2022-11-10T23:59:54.158Z,8.07
